Time;durP1;ratioP1;P1;durP2;ratioP2;P2;SDS_P1;SDS_P2;PMS_P1;PMS_P2;Temp;Humidity;BMP_temperature;BMP_pressure;BME280_temperature;BME280_humidity;BME280_pressure;Samples;Min_cycle;Max_cycle;Signal;HPM_P1;HPM_P2
2021/07/21 00:06:30;;;;;;;12.1;5.9;;;;;;;15.6;100;98780.67;;;;
2021/07/21 00:16:33;;;;;;;10.8;6.8;;;;;;;15.63;100;98779.2;;;;
2021/07/21 00:26:30;;;;;;;10.4;7.3;;;;;;;15.47;100;98783.66;;;;
2021/07/21 00:36:30;;;;;;;11.8;7.8;;;;;;;15.44;100;98782.41;;;;
2021/07/21 00:46:29;;;;;;;9.6;6.3;;;;;;;15.43;100;98778.1;;;;
2021/07/21 00:56:30;;;;;;;9.6;6.7;;;;;;;15.29;100;98788.45;;;;
2021/07/21 01:06:28;;;;;;;14.6;6.1;;;;;;;15.5;100;98799.31;;;;
2021/07/21 01:16:28;;;;;;;10.9;6.5;;;;;;;15.49;100;98792.28;;;;
2021/07/21 01:26:27;;;;;;;13;5.5;;;;;;;15.35;100;98797.18;;;;
2021/07/21 01:36:27;;;;;;;9.3;6.2;;;;;;;15.34;100;98792.89;;;;
2021/07/21 01:46:26;;;;;;;11.2;6.2;;;;;;;15.34;100;98793.66;;;;
2021/07/21 01:56:26;;;;;;;11.1;5.3;;;;;;;15.19;100;98777.2;;;;
2021/07/21 02:06:25;;;;;;;9.1;5.8;;;;;;;15.3;100;98786.53;;;;
2021/07/21 02:16:25;;;;;;;9.5;5.5;;;;;;;15.35;100;98791.75;;;;
2021/07/21 02:26:24;;;;;;;14.8;5.2;;;;;;;15.38;100;98807.38;;;;
2021/07/21 02:36:24;;;;;;;9.1;4.5;;;;;;;15.49;100;98805.87;;;;
2021/07/21 02:46:24;;;;;;;9;4.8;;;;;;;15.49;100;98808.59;;;;
2021/07/21 02:56:23;;;;;;;10.7;5.9;;;;;;;15.49;100;98805.87;;;;
2021/07/21 03:06:23;;;;;;;7.2;5.4;;;;;;;15.5;100;98819.13;;;;
2021/07/21 03:16:22;;;;;;;10.8;5.1;;;;;;;15.39;100;98830.7;;;;
2021/07/21 03:26:22;;;;;;;6.7;4.1;;;;;;;15.32;100;98833.15;;;;
2021/07/21 03:36:21;;;;;;;8;4.5;;;;;;;15.4;100;98849.39;;;;
2021/07/21 03:46:21;;;;;;;9.8;5.3;;;;;;;15.42;100;98852.55;;;;
2021/07/21 03:56:20;;;;;;;8.6;5.3;;;;;;;15.39;100;98857.86;;;;
2021/07/21 04:06:20;;;;;;;8.7;5.1;;;;;;;15.26;100;98864.36;;;;
2021/07/21 04:16:20;;;;;;;7.3;4.4;;;;;;;15.42;100;98884.34;;;;
2021/07/21 04:26:19;;;;;;;9.5;4.9;;;;;;;15.44;100;98876.69;;;;
2021/07/21 04:36:19;;;;;;;10.4;4.7;;;;;;;15.36;100;98886.48;;;;
2021/07/21 04:46:19;;;;;;;7.1;3.8;;;;;;;15.54;100;98887.97;;;;
2021/07/21 04:56:18;;;;;;;9.3;4.4;;;;;;;15.68;100;98889.61;;;;
2021/07/21 05:06:18;;;;;;;9.2;5.4;;;;;;;15.73;100;98898.34;;;;
2021/07/21 05:16:17;;;;;;;9.6;4.9;;;;;;;15.79;100;98915.25;;;;
2021/07/21 05:26:17;;;;;;;23.2;5;;;;;;;15.95;100;98917.02;;;;
2021/07/21 05:36:16;;;;;;;7.8;5.1;;;;;;;16.13;100;98930.44;;;;
2021/07/21 05:46:16;;;;;;;9.5;4.6;;;;;;;16.2;100;98941.56;;;;
2021/07/21 05:56:16;;;;;;;8.4;5.3;;;;;;;16.66;100;98943.95;;;;
2021/07/21 06:06:15;;;;;;;8.1;4.8;;;;;;;16.76;100;98951.7;;;;
2021/07/21 06:16:15;;;;;;;7.6;4.9;;;;;;;17.06;100;98961.23;;;;
2021/07/21 06:26:15;;;;;;;8.6;5.6;;;;;;;17.3;100;98960.41;;;;
2021/07/21 06:36:15;;;;;;;11.4;5.6;;;;;;;17.27;100;98973.92;;;;
2021/07/21 06:46:15;;;;;;;8.7;5.1;;;;;;;17.56;100;98976.43;;;;
2021/07/21 06:56:14;;;;;;;11.8;5.3;;;;;;;17.51;100;98976.63;;;;
2021/07/21 07:06:14;;;;;;;9.3;5.8;;;;;;;17.75;100;98984.78;;;;
2021/07/21 07:16:14;;;;;;;6.8;5;;;;;;;17.83;100;98991.23;;;;
2021/07/21 07:26:14;;;;;;;8.4;4.9;;;;;;;17.79;100;98993.06;;;;
2021/07/21 07:36:14;;;;;;;9.9;5;;;;;;;18.05;100;98990.7;;;;
2021/07/21 07:46:14;;;;;;;13.3;7.4;;;;;;;18.33;100;98998.88;;;;
2021/07/21 07:56:14;;;;;;;9.8;5.6;;;;;;;18.57;100;99002.31;;;;
2021/07/21 08:06:14;;;;;;;8.3;5.9;;;;;;;19.13;100;99001.38;;;;
2021/07/21 08:16:14;;;;;;;11.3;5.6;;;;;;;19.12;100;99002.54;;;;
2021/07/21 08:26:14;;;;;;;8.3;5.9;;;;;;;19.6;100;99010.34;;;;
2021/07/21 08:36:14;;;;;;;11.5;6.5;;;;;;;19.64;100;99013.16;;;;
2021/07/21 08:46:14;;;;;;;10.2;6.5;;;;;;;19.88;100;99002.77;;;;
2021/07/21 08:56:14;;;;;;;9.2;5.4;;;;;;;20.45;100;99007.45;;;;
2021/07/21 09:06:14;;;;;;;10.6;6.1;;;;;;;20.44;100;99016.81;;;;
2021/07/21 09:16:14;;;;;;;10.4;6.1;;;;;;;21;100;98997.88;;;;
2021/07/21 09:26:14;;;;;;;12.9;5.1;;;;;;;21.47;100;99002.98;;;;
2021/07/21 09:36:15;;;;;;;8.9;6.8;;;;;;;21.67;100;98997.36;;;;
2021/07/21 09:46:15;;;;;;;9.5;7;;;;;;;22.06;100;98998.71;;;;
2021/07/21 09:56:15;;;;;;;9.4;4.5;;;;;;;22.45;100;99001.92;;;;
2021/07/21 10:06:16;;;;;;;9.4;5.8;;;;;;;22.89;100;99008.28;;;;
2021/07/21 10:16:16;;;;;;;24.4;9.1;;;;;;;23.4;100;98989.05;;;;
2021/07/21 10:26:17;;;;;;;8;5;;;;;;;24.17;99.2666;98993.45;;;;
2021/07/21 10:36:18;;;;;;;7.9;5;;;;;;;23.25;99.34082;98997.59;;;;
2021/07/21 10:46:18;;;;;;;6.8;4.6;;;;;;;23.19;97.27148;98999.09;;;;
2021/07/21 11:06:19;;;;;;;8;3.8;;;;;;;22.42;100;99006.19;;;;
2021/07/21 11:16:20;;;;;;;13.9;5.1;;;;;;;22.55;100;99004.78;;;;
2021/07/21 11:26:20;;;;;;;6.3;4.4;;;;;;;22.94;98.7998;99004.41;;;;
2021/07/21 11:36:20;;;;;;;10.5;5;;;;;;;23.19;91.64844;98997.14;;;;
2021/07/21 11:46:21;;;;;;;9.3;4.1;;;;;;;23.69;86.27148;98990.05;;;;
2021/07/21 11:56:21;;;;;;;5.9;3.2;;;;;;;24.25;80.48926;98988.77;;;;
2021/07/21 12:06:22;;;;;;;17.1;9.2;;;;;;;24.46;80.30664;98986.88;;;;
2021/07/21 12:16:23;;;;;;;7.9;4.4;;;;;;;24.91;77.32227;98985.4;;;;
2021/07/21 12:26:23;;;;;;;11.7;7.7;;;;;;;24.39;81.68945;98997.08;;;;
2021/07/21 12:36:27;;;;;;;6.6;4;;;;;;;23.46;85.53223;99003.28;;;;
2021/07/21 12:46:25;;;;;;;8.1;4;;;;;;;23.05;88.09473;99003.31;;;;
2021/07/21 12:56:25;;;;;;;8.6;4;;;;;;;23.13;91.38184;98998.67;;;;
2021/07/21 13:06:26;;;;;;;6.6;4.4;;;;;;;23.21;90.94727;98985.77;;;;
2021/07/21 13:16:27;;;;;;;10.1;4.1;;;;;;;23.78;84.55078;98984.98;;;;
2021/07/21 13:26:27;;;;;;;8.1;2.9;;;;;;;24.63;85.30078;98973.51;;;;
2021/07/21 13:36:28;;;;;;;8.3;4.8;;;;;;;24.97;81.03809;98967.27;;;;
2021/07/21 13:46:29;;;;;;;9.5;4.4;;;;;;;25.52;76.03711;98966.84;;;;
2021/07/21 13:56:30;;;;;;;8;4.7;;;;;;;24.41;75.44336;98961.64;;;;
2021/07/21 14:06:30;;;;;;;8;3.6;;;;;;;23.69;80.42383;98965.28;;;;
2021/07/21 14:16:34;;;;;;;8.5;3.7;;;;;;;23.68;80.25977;98968.41;;;;
2021/07/21 14:26:34;;;;;;;6.5;4.1;;;;;;;23.4;85.94824;98960.74;;;;
2021/07/21 14:36:34;;;;;;;7.6;4.1;;;;;;;23.55;77.62402;98946.73;;;;
2021/07/21 14:46:33;;;;;;;7.6;3.4;;;;;;;24.35;71.49316;98963.21;;;;
2021/07/21 14:56:34;;;;;;;7.9;4.4;;;;;;;23.6;74.92285;98953.84;;;;
2021/07/21 15:06:34;;;;;;;5.9;3.5;;;;;;;24.78;75.22559;98948.31;;;;
2021/07/21 15:16:35;;;;;;;5.3;3.6;;;;;;;27.41;62.97363;98957.09;;;;
2021/07/21 15:26:36;;;;;;;10.1;4.1;;;;;;;25.82;69.29199;98949.82;;;;
2021/07/21 15:36:36;;;;;;;6.3;2.6;;;;;;;24.11;75.74121;98950.92;;;;
2021/07/21 15:46:38;;;;;;;6.3;3.6;;;;;;;23.27;79.67578;98957.52;;;;
2021/07/21 15:56:38;;;;;;;13.3;7.1;;;;;;;23.83;78.96191;98951.59;;;;
2021/07/21 16:06:38;;;;;;;17.9;11.1;;;;;;;23.91;78.66406;98950.45;;;;
2021/07/21 16:16:39;;;;;;;9.5;5.4;;;;;;;24.59;72.61621;98951.45;;;;
2021/07/21 16:26:40;;;;;;;7.1;4.1;;;;;;;25.49;70.9502;98956.58;;;;
2021/07/21 16:36:40;;;;;;;6;3.9;;;;;;;27.3;63.0293;98973.02;;;;
2021/07/21 16:46:41;;;;;;;6.9;4.1;;;;;;;28.48;55.69336;98965.75;;;;
2021/07/21 16:56:42;;;;;;;9.8;4;;;;;;;28.82;54.69434;98977.55;;;;
2021/07/21 17:06:43;;;;;;;6.7;3.8;;;;;;;28.77;52.22559;98974.47;;;;
2021/07/21 17:16:45;;;;;;;6.6;3.1;;;;;;;28.73;52.33887;98985.63;;;;
2021/07/21 17:26:46;;;;;;;7.2;3.7;;;;;;;26.01;61.47754;98971.44;;;;
2021/07/21 17:36:47;;;;;;;6;3.1;;;;;;;24.18;69.97363;98984.02;;;;
2021/07/21 17:46:47;;;;;;;7.5;3.5;;;;;;;23.15;76.68262;98984.55;;;;
2021/07/21 17:56:48;;;;;;;9.5;3.6;;;;;;;23.61;74.50586;98996.68;;;;
2021/07/21 18:06:49;;;;;;;6.5;3.9;;;;;;;22.17;80.30176;98998.84;;;;
2021/07/21 18:16:49;;;;;;;9.8;5.4;;;;;;;21.18;85.4707;98995.45;;;;
2021/07/21 18:26:49;;;;;;;7.9;4.9;;;;;;;20.34;92.12598;99002.95;;;;
2021/07/21 18:36:49;;;;;;;7.2;3.2;;;;;;;19.51;100;99007;;;;
2021/07/21 18:46:49;;;;;;;6.8;3.8;;;;;;;18.62;100;99019.59;;;;
2021/07/21 18:56:49;;;;;;;9.5;6.1;;;;;;;17.9;100;99027.7;;;;
2021/07/21 19:06:49;;;;;;;14.4;8.4;;;;;;;17.56;100;99039.11;;;;
2021/07/21 19:16:49;;;;;;;11.6;7.7;;;;;;;17.28;100;99040.91;;;;
2021/07/21 19:26:49;;;;;;;9;4.9;;;;;;;17.07;100;99055.42;;;;
2021/07/21 19:36:49;;;;;;;12.1;5.7;;;;;;;16.99;100;99063.67;;;;
2021/07/21 19:46:48;;;;;;;9.3;5.7;;;;;;;16.95;100;99069;;;;
2021/07/21 19:56:48;;;;;;;9.1;4.8;;;;;;;17.01;100;99064.92;;;;
2021/07/21 20:06:47;;;;;;;10.8;5.4;;;;;;;17.06;100;99081.05;;;;
2021/07/21 20:16:47;;;;;;;11.8;7.5;;;;;;;17.26;100;99073.92;;;;
2021/07/21 20:26:47;;;;;;;8.7;6;;;;;;;17.44;100;99075.3;;;;
2021/07/21 20:36:46;;;;;;;11.6;6.2;;;;;;;17.58;100;99078.52;;;;
2021/07/21 20:46:46;;;;;;;16.3;8.1;;;;;;;17.61;100;99082.48;;;;
2021/07/21 20:56:45;;;;;;;15.6;7.9;;;;;;;17.58;100;99078.52;;;;
2021/07/21 21:06:45;;;;;;;9.5;5.8;;;;;;;17.62;100;99084.08;;;;
2021/07/21 21:16:45;;;;;;;11.3;7;;;;;;;17.63;100;99087.6;;;;
2021/07/21 21:26:45;;;;;;;19.4;12;;;;;;;17.67;100;99096.7;;;;
2021/07/21 21:36:44;;;;;;;11.8;7.2;;;;;;;17.68;100;99100.98;;;;
2021/07/21 21:46:44;;;;;;;11.9;8.2;;;;;;;17.52;100;99100.86;;;;
2021/07/21 21:56:44;;;;;;;12.5;9;;;;;;;17.46;100;99111.17;;;;
2021/07/21 22:06:44;;;;;;;24.5;8;;;;;;;17.44;100;99104.48;;;;
2021/07/21 22:16:43;;;;;;;13.4;7.6;;;;;;;17.44;100;99105.28;;;;
2021/07/21 22:26:43;;;;;;;10;5.8;;;;;;;17.44;100;99109.93;;;;
2021/07/21 22:36:42;;;;;;;13;7.7;;;;;;;17.4;100;99109.02;;;;
2021/07/21 22:46:42;;;;;;;8.3;5.3;;;;;;;17.45;100;99114.25;;;;
2021/07/21 22:56:42;;;;;;;13.7;6.1;;;;;;;17.42;100;99109.48;;;;
2021/07/21 23:06:42;;;;;;;10.6;5.9;;;;;;;17.42;100;99107.53;;;;
2021/07/21 23:16:41;;;;;;;8.5;6.7;;;;;;;17.22;100;99113.07;;;;
2021/07/21 23:26:41;;;;;;;9.1;6;;;;;;;17.24;100;99108.89;;;;
2021/07/21 23:36:40;;;;;;;12.3;5.6;;;;;;;17.1;100;99111.14;;;;
2021/07/21 23:46:47;;;;;;;9.8;6.3;;;;;;;17.11;100;99108.06;;;;
2021/07/21 23:56:40;;;;;;;10.1;6.2;;;;;;;17.06;100;99102.84;;;;
